sensor_id;sensor_type;location;lat;lon;timestamp;noise_LAeq;noise_LA_min;noise_LA_max;noise_LA01;noise_LA95
69619;Laerm;57653;51.434;5.984;2023-01-24T00:00:04;46.22;33.60;61.54;;
69619;Laerm;57653;51.434;5.984;2023-01-24T00:00:15;46.08;32.55;58.38;;
69619;Laerm;57653;51.434;5.984;2023-01-24T00:00:25;43.84;32.31;60.46;;
69619;Laerm;57653;51.434;5.984;2023-01-24T00:00:35;39.96;30.81;52.17;;
69619;Laerm;57653;51.434;5.984;2023-01-24T00:00:46;39.00;31.01;55.69;;
69619;Laerm;57653;51.434;5.984;2023-01-24T00:00:56;35.96;31.12;50.21;;
69619;Laerm;57653;51.434;5.984;2023-01-24T00:01:06;33.93;31.07;47.08;;
69619;Laerm;57653;51.434;5.984;2023-01-24T00:01:17;36.92;30.83;52.53;;
69619;Laerm;57653;51.434;5.984;2023-01-24T00:01:27;42.32;31.71;55.24;;
69619;Laerm;57653;51.434;5.984;2023-01-24T00:01:37;37.55;30.97;51.75;;
69619;Laerm;57653;51.434;5.984;2023-01-24T00:01:47;32.55;30.19;46.47;;
69619;Laerm;57653;51.434;5.984;2023-01-24T00:01:58;31.51;30.20;34.35;;
69619;Laerm;57653;51.434;5.984;2023-01-24T00:02:08;31.82;30.41;40.08;;
69619;Laerm;57653;51.434;5.984;2023-01-24T00:02:18;39.38;30.20;52.78;;
69619;Laerm;57653;51.434;5.984;2023-01-24T00:02:28;42.08;31.99;54.81;;
69619;Laerm;57653;51.434;5.984;2023-01-24T00:02:39;34.52;30.84;46.52;;
69619;Laerm;57653;51.434;5.984;2023-01-24T00:02:49;35.10;30.73;51.06;;
69619;Laerm;57653;51.434;5.984;2023-01-24T00:02:59;34.09;30.74;46.21;;
69619;Laerm;57653;51.434;5.984;2023-01-24T00:03:10;39.73;31.30;51.47;;
69619;Laerm;57653;51.434;5.984;2023-01-24T00:03:22;46.76;31.99;58.95;;
69619;Laerm;57653;51.434;5.984;2023-01-24T00:03:32;40.61;31.00;57.78;;
69619;Laerm;57653;51.434;5.984;2023-01-24T00:03:43;31.99;30.38;39.75;;
69619;Laerm;57653;51.434;5.984;2023-01-24T00:03:53;32.80;30.43;42.26;;
69619;Laerm;57653;51.434;5.984;2023-01-24T00:04:03;34.40;30.64;49.38;;
69619;Laerm;57653;51.434;5.984;2023-01-24T00:04:13;33.51;30.39;47.31;;
69619;Laerm;57653;51.434;5.984;2023-01-24T00:04:24;32.48;30.68;44.95;;
69619;Laerm;57653;51.434;5.984;2023-01-24T00:04:34;34.07;31.11;46.53;;
69619;Laerm;57653;51.434;5.984;2023-01-24T00:04:44;34.54;30.72;49.79;;
69619;Laerm;57653;51.434;5.984;2023-01-24T00:04:54;33.73;30.62;47.99;;
69619;Laerm;57653;51.434;5.984;2023-01-24T00:05:05;32.89;30.47;47.91;;
69619;Laerm;57653;51.434;5.984;2023-01-24T00:05:15;35.85;30.69;52.01;;
69619;Laerm;57653;51.434;5.984;2023-01-24T00:05:25;36.60;30.63;57.42;;
69619;Laerm;57653;51.434;5.984;2023-01-24T00:05:36;37.27;31.00;51.69;;
69619;Laerm;57653;51.434;5.984;2023-01-24T00:05:47;40.23;31.28;52.87;;
69619;Laerm;57653;51.434;5.984;2023-01-24T00:05:57;37.87;31.16;52.91;;
69619;Laerm;57653;51.434;5.984;2023-01-24T00:06:07;34.04;31.61;46.05;;
69619;Laerm;57653;51.434;5.984;2023-01-24T00:06:18;34.58;30.75;48.89;;
69619;Laerm;57653;51.434;5.984;2023-01-24T00:06:28;39.77;31.10;54.57;;
69619;Laerm;57653;51.434;5.984;2023-01-24T00:06:38;43.83;32.38;57.01;;
69619;Laerm;57653;51.434;5.984;2023-01-24T00:06:49;37.79;31.16;55.06;;
69619;Laerm;57653;51.434;5.984;2023-01-24T00:07:02;31.62;30.34;40.17;;
69619;Laerm;57653;51.434;5.984;2023-01-24T00:07:12;32.17;30.46;42.59;;
69619;Laerm;57653;51.434;5.984;2023-01-24T00:07:23;34.37;30.60;48.41;;
69619;Laerm;57653;51.434;5.984;2023-01-24T00:07:33;32.70;30.44;40.64;;
69619;Laerm;57653;51.434;5.984;2023-01-24T00:07:43;34.93;30.64;50.05;;
69619;Laerm;57653;51.434;5.984;2023-01-24T00:07:53;32.40;30.28;43.41;;
69619;Laerm;57653;51.434;5.984;2023-01-24T00:08:04;31.54;30.25;41.15;;
69619;Laerm;57653;51.434;5.984;2023-01-24T00:08:15;31.54;30.31;38.76;;
69619;Laerm;57653;51.434;5.984;2023-01-24T00:08:28;33.56;30.30;46.18;;
69619;Laerm;57653;51.434;5.984;2023-01-24T00:08:38;36.33;30.67;50.06;;
69619;Laerm;57653;51.434;5.984;2023-01-24T00:08:49;41.47;30.74;57.46;;
69619;Laerm;57653;51.434;5.984;2023-01-24T00:08:59;39.34;31.15;52.13;;
69619;Laerm;57653;51.434;5.984;2023-01-24T00:09:09;43.52;32.70;56.44;;
69619;Laerm;57653;51.434;5.984;2023-01-24T00:09:19;39.01;31.41;55.36;;
69619;Laerm;57653;51.434;5.984;2023-01-24T00:09:30;40.21;31.35;54.00;;
69619;Laerm;57653;51.434;5.984;2023-01-24T00:09:40;36.43;30.76;49.62;;
69619;Laerm;57653;51.434;5.984;2023-01-24T00:09:50;37.68;31.26;50.89;;
69619;Laerm;57653;51.434;5.984;2023-01-24T00:10:00;34.76;31.72;43.93;;
69619;Laerm;57653;51.434;5.984;2023-01-24T00:10:11;54.07;33.67;64.79;;
69619;Laerm;57653;51.434;5.984;2023-01-24T00:10:21;58.06;43.03;64.35;;
69619;Laerm;57653;51.434;5.984;2023-01-24T00:10:32;41.54;34.21;48.22;;
69619;Laerm;57653;51.434;5.984;2023-01-24T00:10:43;37.00;31.67;50.15;;
69619;Laerm;57653;51.434;5.984;2023-01-24T00:11:00;36.39;30.93;51.10;;
69619;Laerm;57653;51.434;5.984;2023-01-24T00:11:11;35.61;30.42;55.05;;
69619;Laerm;57653;51.434;5.984;2023-01-24T00:11:22;31.80;30.26;39.12;;
69619;Laerm;57653;51.434;5.984;2023-01-24T00:11:32;32.35;30.52;41.71;;
69619;Laerm;57653;51.434;5.984;2023-01-24T00:11:42;31.86;29.99;38.25;;
69619;Laerm;57653;51.434;5.984;2023-01-24T00:11:53;33.53;29.96;51.38;;
69619;Laerm;57653;51.434;5.984;2023-01-24T00:12:03;31.52;30.13;41.41;;
69619;Laerm;57653;51.434;5.984;2023-01-24T00:12:13;31.21;30.21;32.83;;
69619;Laerm;57653;51.434;5.984;2023-01-24T00:12:23;31.13;29.96;32.12;;
69619;Laerm;57653;51.434;5.984;2023-01-24T00:12:34;31.11;30.08;32.72;;
69619;Laerm;57653;51.434;5.984;2023-01-24T00:12:44;31.08;29.75;32.11;;
69619;Laerm;57653;51.434;5.984;2023-01-24T00:12:54;31.35;30.08;38.34;;
69619;Laerm;57653;51.434;5.984;2023-01-24T00:13:05;31.19;29.85;34.51;;
69619;Laerm;57653;51.434;5.984;2023-01-24T00:13:15;31.09;29.73;32.12;;
69619;Laerm;57653;51.434;5.984;2023-01-24T00:13:26;31.01;29.78;31.98;;
69619;Laerm;57653;51.434;5.984;2023-01-24T00:13:36;31.17;29.94;34.11;;
69619;Laerm;57653;51.434;5.984;2023-01-24T00:13:47;31.06;29.71;32.36;;
69619;Laerm;57653;51.434;5.984;2023-01-24T00:13:57;31.08;29.89;32.31;;
69619;Laerm;57653;51.434;5.984;2023-01-24T00:14:07;31.21;30.18;32.91;;
69619;Laerm;57653;51.434;5.984;2023-01-24T00:14:17;31.34;30.30;32.33;;
69619;Laerm;57653;51.434;5.984;2023-01-24T00:14:28;31.84;30.52;35.74;;
69619;Laerm;57653;51.434;5.984;2023-01-24T00:14:38;31.19;30.13;32.25;;
69619;Laerm;57653;51.434;5.984;2023-01-24T00:14:48;33.88;30.52;48.39;;
69619;Laerm;57653;51.434;5.984;2023-01-24T00:14:58;41.88;32.39;58.86;;
69619;Laerm;57653;51.434;5.984;2023-01-24T00:15:09;45.72;32.54;57.17;;
69619;Laerm;57653;51.434;5.984;2023-01-24T00:15:19;42.81;32.39;57.42;;
69619;Laerm;57653;51.434;5.984;2023-01-24T00:15:29;43.82;31.82;58.43;;
69619;Laerm;57653;51.434;5.984;2023-01-24T00:15:40;39.38;31.29;58.26;;
69619;Laerm;57653;51.434;5.984;2023-01-24T00:15:50;41.55;31.30;58.35;;
69619;Laerm;57653;51.434;5.984;2023-01-24T00:16:04;39.00;31.09;53.74;;
69619;Laerm;57653;51.434;5.984;2023-01-24T00:16:19;37.68;31.41;54.43;;
69619;Laerm;57653;51.434;5.984;2023-01-24T00:16:29;32.64;30.35;45.52;;
69619;Laerm;57653;51.434;5.984;2023-01-24T00:16:39;33.19;31.06;43.61;;
69619;Laerm;57653;51.434;5.984;2023-01-24T00:16:50;44.68;31.21;57.05;;
69619;Laerm;57653;51.434;5.984;2023-01-24T00:17:01;44.31;32.78;58.32;;
69619;Laerm;57653;51.434;5.984;2023-01-24T00:17:12;42.07;32.21;57.08;;
69619;Laerm;57653;51.434;5.984;2023-01-24T00:17:22;41.09;31.90;55.06;;
69619;Laerm;57653;51.434;5.984;2023-01-24T00:17:34;33.63;30.58;47.31;;
69619;Laerm;57653;51.434;5.984;2023-01-24T00:17:44;42.77;31.64;56.01;;
69619;Laerm;57653;51.434;5.984;2023-01-24T00:17:54;44.85;32.58;57.86;;
69619;Laerm;57653;51.434;5.984;2023-01-24T00:18:05;45.42;33.33;57.33;;
69619;Laerm;57653;51.434;5.984;2023-01-24T00:18:15;43.68;32.59;55.35;;
69619;Laerm;57653;51.434;5.984;2023-01-24T00:18:25;40.34;32.61;52.60;;
69619;Laerm;57653;51.434;5.984;2023-01-24T00:18:35;43.68;32.35;59.41;;
69619;Laerm;57653;51.434;5.984;2023-01-24T00:18:46;39.70;31.86;56.37;;
69619;Laerm;57653;51.434;5.984;2023-01-24T00:18:56;43.75;32.22;60.48;;
69619;Laerm;57653;51.434;5.984;2023-01-24T00:19:07;37.82;30.93;51.88;;
69619;Laerm;57653;51.434;5.984;2023-01-24T00:19:17;38.17;30.86;53.13;;
69619;Laerm;57653;51.434;5.984;2023-01-24T00:19:27;38.89;30.95;56.88;;
69619;Laerm;57653;51.434;5.984;2023-01-24T00:19:38;37.45;31.39;54.32;;
69619;Laerm;57653;51.434;5.984;2023-01-24T00:19:48;41.78;31.57;56.85;;
69619;Laerm;57653;51.434;5.984;2023-01-24T00:19:58;46.73;33.38;61.93;;
69619;Laerm;57653;51.434;5.984;2023-01-24T00:20:09;47.92;34.76;60.16;;
69619;Laerm;57653;51.434;5.984;2023-01-24T00:20:19;48.86;35.32;62.41;;
69619;Laerm;57653;51.434;5.984;2023-01-24T00:20:29;42.41;32.78;55.89;;
69619;Laerm;57653;51.434;5.984;2023-01-24T00:20:40;44.10;32.27;58.02;;
69619;Laerm;57653;51.434;5.984;2023-01-24T00:20:50;48.73;32.74;62.32;;
69619;Laerm;57653;51.434;5.984;2023-01-24T00:21:04;45.70;33.58;59.85;;
69619;Laerm;57653;51.434;5.984;2023-01-24T00:21:15;41.11;31.41;57.07;;
69619;Laerm;57653;51.434;5.984;2023-01-24T00:21:26;42.04;32.15;56.66;;
69619;Laerm;57653;51.434;5.984;2023-01-24T00:21:36;44.79;31.91;58.18;;
69619;Laerm;57653;51.434;5.984;2023-01-24T00:21:46;42.81;32.49;54.62;;
69619;Laerm;57653;51.434;5.984;2023-01-24T00:21:56;44.39;33.52;56.84;;
69619;Laerm;57653;51.434;5.984;2023-01-24T00:22:07;45.50;32.09;59.88;;
69619;Laerm;57653;51.434;5.984;2023-01-24T00:22:17;42.63;32.30;59.57;;
69619;Laerm;57653;51.434;5.984;2023-01-24T00:22:27;36.06;31.31;49.93;;
69619;Laerm;57653;51.434;5.984;2023-01-24T00:22:38;37.75;31.54;52.78;;
69619;Laerm;57653;51.434;5.984;2023-01-24T00:22:48;43.79;32.82;56.71;;
69619;Laerm;57653;51.434;5.984;2023-01-24T00:22:58;47.58;33.47;63.61;;
69619;Laerm;57653;51.434;5.984;2023-01-24T00:23:08;43.10;32.76;56.07;;
69619;Laerm;57653;51.434;5.984;2023-01-24T00:23:19;42.85;31.47;59.68;;
69619;Laerm;57653;51.434;5.984;2023-01-24T00:23:29;48.43;33.54;63.17;;
69619;Laerm;57653;51.434;5.984;2023-01-24T00:23:43;42.96;32.17;55.18;;
69619;Laerm;57653;51.434;5.984;2023-01-24T00:23:54;40.43;31.14;55.64;;
69619;Laerm;57653;51.434;5.984;2023-01-24T00:24:04;41.21;31.55;56.38;;
69619;Laerm;57653;51.434;5.984;2023-01-24T00:24:15;42.04;31.23;54.81;;
69619;Laerm;57653;51.434;5.984;2023-01-24T00:24:25;37.25;31.00;49.30;;
69619;Laerm;57653;51.434;5.984;2023-01-24T00:24:36;35.04;30.88;51.46;;
69619;Laerm;57653;51.434;5.984;2023-01-24T00:24:46;37.35;31.08;52.49;;
69619;Laerm;57653;51.434;5.984;2023-01-24T00:24:58;41.69;31.82;54.82;;
69619;Laerm;57653;51.434;5.984;2023-01-24T00:25:08;42.36;32.13;55.74;;
69619;Laerm;57653;51.434;5.984;2023-01-24T00:25:18;39.74;31.42;55.28;;
69619;Laerm;57653;51.434;5.984;2023-01-24T00:25:29;36.59;31.03;49.43;;
69619;Laerm;57653;51.434;5.984;2023-01-24T00:25:39;36.73;30.87;46.65;;
69619;Laerm;57653;51.434;5.984;2023-01-24T00:25:49;35.46;30.81;50.07;;
69619;Laerm;57653;51.434;5.984;2023-01-24T00:25:59;38.68;31.75;48.53;;
69619;Laerm;57653;51.434;5.984;2023-01-24T00:26:10;42.84;31.77;55.72;;
69619;Laerm;57653;51.434;5.984;2023-01-24T00:26:21;37.48;31.50;55.41;;
69619;Laerm;57653;51.434;5.984;2023-01-24T00:26:31;34.24;31.14;51.90;;
69619;Laerm;57653;51.434;5.984;2023-01-24T00:26:42;32.50;30.94;41.26;;
69619;Laerm;57653;51.434;5.984;2023-01-24T00:26:52;32.98;31.19;43.86;;
69619;Laerm;57653;51.434;5.984;2023-01-24T00:27:02;33.18;31.31;44.05;;
69619;Laerm;57653;51.434;5.984;2023-01-24T00:27:13;38.55;31.06;54.93;;
69619;Laerm;57653;51.434;5.984;2023-01-24T00:27:23;44.75;32.79;57.30;;
69619;Laerm;57653;51.434;5.984;2023-01-24T00:27:33;43.45;32.17;59.27;;
69619;Laerm;57653;51.434;5.984;2023-01-24T00:27:45;49.25;34.94;61.10;;
69619;Laerm;57653;51.434;5.984;2023-01-24T00:27:55;46.06;33.15;58.77;;
69619;Laerm;57653;51.434;5.984;2023-01-24T00:28:05;47.59;33.44;59.52;;
69619;Laerm;57653;51.434;5.984;2023-01-24T00:28:15;41.58;31.42;53.35;;
69619;Laerm;57653;51.434;5.984;2023-01-24T00:28:26;38.84;31.21;51.30;;
69619;Laerm;57653;51.434;5.984;2023-01-24T00:28:36;34.49;30.79;44.80;;
69619;Laerm;57653;51.434;5.984;2023-01-24T00:28:46;37.64;30.61;53.89;;
69619;Laerm;57653;51.434;5.984;2023-01-24T00:28:57;38.24;30.63;56.47;;
69619;Laerm;57653;51.434;5.984;2023-01-24T00:29:08;32.64;30.00;40.84;;
69619;Laerm;57653;51.434;5.984;2023-01-24T00:29:19;32.83;30.13;44.95;;
69619;Laerm;57653;51.434;5.984;2023-01-24T00:29:29;31.46;29.96;37.10;;
69619;Laerm;57653;51.434;5.984;2023-01-24T00:29:39;31.60;30.16;44.91;;
69619;Laerm;57653;51.434;5.984;2023-01-24T00:29:49;32.30;30.27;45.75;;
69619;Laerm;57653;51.434;5.984;2023-01-24T00:30:00;34.46;30.24;49.22;;
69619;Laerm;57653;51.434;5.984;2023-01-24T00:30:11;31.74;30.29;40.89;;
69619;Laerm;57653;51.434;5.984;2023-01-24T00:30:21;33.59;30.51;44.63;;
69619;Laerm;57653;51.434;5.984;2023-01-24T00:30:32;33.00;30.28;42.27;;
69619;Laerm;57653;51.434;5.984;2023-01-24T00:30:42;32.70;30.49;44.75;;
69619;Laerm;57653;51.434;5.984;2023-01-24T00:30:52;38.10;30.62;56.55;;
69619;Laerm;57653;51.434;5.984;2023-01-24T00:31:03;33.32;30.60;43.62;;
69619;Laerm;57653;51.434;5.984;2023-01-24T00:31:13;35.07;30.06;49.77;;
69619;Laerm;57653;51.434;5.984;2023-01-24T00:31:24;31.87;29.94;45.29;;
69619;Laerm;57653;51.434;5.984;2023-01-24T00:31:34;34.19;30.11;49.24;;
69619;Laerm;57653;51.434;5.984;2023-01-24T00:31:44;31.32;30.05;37.43;;
69619;Laerm;57653;51.434;5.984;2023-01-24T00:31:54;31.18;29.83;33.34;;
69619;Laerm;57653;51.434;5.984;2023-01-24T00:32:05;31.76;30.29;40.78;;
69619;Laerm;57653;51.434;5.984;2023-01-24T00:32:15;32.53;30.15;46.88;;
69619;Laerm;57653;51.434;5.984;2023-01-24T00:32:25;33.29;30.13;50.94;;
69619;Laerm;57653;51.434;5.984;2023-01-24T00:32:35;33.57;30.35;48.00;;
69619;Laerm;57653;51.434;5.984;2023-01-24T00:32:46;32.16;30.10;43.13;;
69619;Laerm;57653;51.434;5.984;2023-01-24T00:32:56;33.33;30.40;45.62;;
69619;Laerm;57653;51.434;5.984;2023-01-24T00:33:06;34.27;30.45;48.45;;
69619;Laerm;57653;51.434;5.984;2023-01-24T00:33:16;32.66;30.13;46.06;;
69619;Laerm;57653;51.434;5.984;2023-01-24T00:33:27;32.84;30.13;51.64;;
69619;Laerm;57653;51.434;5.984;2023-01-24T00:33:37;31.44;30.27;38.63;;
69619;Laerm;57653;51.434;5.984;2023-01-24T00:33:48;31.75;30.13;42.75;;
69619;Laerm;57653;51.434;5.984;2023-01-24T00:33:58;32.11;30.16;41.57;;
69619;Laerm;57653;51.434;5.984;2023-01-24T00:34:08;37.66;30.48;52.78;;
69619;Laerm;57653;51.434;5.984;2023-01-24T00:34:18;38.52;30.35;58.10;;
69619;Laerm;57653;51.434;5.984;2023-01-24T00:34:29;33.78;29.92;50.13;;
69619;Laerm;57653;51.434;5.984;2023-01-24T00:34:39;36.69;30.45;51.68;;
69619;Laerm;57653;51.434;5.984;2023-01-24T00:34:49;33.59;30.35;49.06;;
69619;Laerm;57653;51.434;5.984;2023-01-24T00:34:59;31.52;29.96;37.43;;
69619;Laerm;57653;51.434;5.984;2023-01-24T00:35:09;34.33;30.68;47.40;;
69619;Laerm;57653;51.434;5.984;2023-01-24T00:35:20;31.53;30.14;43.39;;
69619;Laerm;57653;51.434;5.984;2023-01-24T00:35:30;39.27;30.24;52.92;;
69619;Laerm;57653;51.434;5.984;2023-01-24T00:35:40;34.25;30.57;45.73;;
69619;Laerm;57653;51.434;5.984;2023-01-24T00:35:51;32.15;30.14;45.41;;
69619;Laerm;57653;51.434;5.984;2023-01-24T00:36:01;34.78;30.40;55.27;;
69619;Laerm;57653;51.434;5.984;2023-01-24T00:36:11;32.44;30.16;48.04;;
69619;Laerm;57653;51.434;5.984;2023-01-24T00:36:22;31.35;30.14;36.87;;
69619;Laerm;57653;51.434;5.984;2023-01-24T00:36:32;34.16;30.67;46.97;;
69619;Laerm;57653;51.434;5.984;2023-01-24T00:36:42;41.61;31.11;56.49;;
69619;Laerm;57653;51.434;5.984;2023-01-24T00:36:52;37.42;31.06;51.80;;
69619;Laerm;57653;51.434;5.984;2023-01-24T00:37:03;33.23;30.52;49.98;;
69619;Laerm;57653;51.434;5.984;2023-01-24T00:37:13;32.67;30.44;45.65;;
69619;Laerm;57653;51.434;5.984;2023-01-24T00:37:24;31.55;30.21;36.28;;
69619;Laerm;57653;51.434;5.984;2023-01-24T00:37:34;33.57;30.44;46.23;;
69619;Laerm;57653;51.434;5.984;2023-01-24T00:37:44;42.66;31.28;59.35;;
69619;Laerm;57653;51.434;5.984;2023-01-24T00:37:55;39.89;31.24;56.91;;
69619;Laerm;57653;51.434;5.984;2023-01-24T00:38:05;38.23;31.56;56.53;;
69619;Laerm;57653;51.434;5.984;2023-01-24T00:38:15;43.31;32.22;58.71;;
69619;Laerm;57653;51.434;5.984;2023-01-24T00:38:27;36.09;31.18;51.04;;
69619;Laerm;57653;51.434;5.984;2023-01-24T00:38:37;40.49;30.98;58.20;;
69619;Laerm;57653;51.434;5.984;2023-01-24T00:38:48;45.73;32.63;57.78;;
69619;Laerm;57653;51.434;5.984;2023-01-24T00:38:58;39.12;31.21;51.14;;
69619;Laerm;57653;51.434;5.984;2023-01-24T00:39:09;33.94;31.25;46.23;;
69619;Laerm;57653;51.434;5.984;2023-01-24T00:39:20;46.16;31.67;59.87;;
69619;Laerm;57653;51.434;5.984;2023-01-24T00:39:30;46.58;34.01;57.24;;
69619;Laerm;57653;51.434;5.984;2023-01-24T00:39:40;47.26;34.33;60.16;;
69619;Laerm;57653;51.434;5.984;2023-01-24T00:39:50;45.06;33.18;58.42;;
69619;Laerm;57653;51.434;5.984;2023-01-24T00:40:01;46.20;33.47;61.17;;
69619;Laerm;57653;51.434;5.984;2023-01-24T00:40:11;46.72;32.71;57.10;;
69619;Laerm;57653;51.434;5.984;2023-01-24T00:40:21;46.58;33.32;59.99;;
69619;Laerm;57653;51.434;5.984;2023-01-24T00:40:32;49.02;33.97;62.20;;
69619;Laerm;57653;51.434;5.984;2023-01-24T00:40:42;46.42;31.95;60.24;;
69619;Laerm;57653;51.434;5.984;2023-01-24T00:40:52;45.24;32.19;58.96;;
69619;Laerm;57653;51.434;5.984;2023-01-24T00:41:02;49.24;35.40;62.04;;
69619;Laerm;57653;51.434;5.984;2023-01-24T00:41:13;46.27;33.61;56.20;;
69619;Laerm;57653;51.434;5.984;2023-01-24T00:41:23;42.54;32.48;54.22;;
69619;Laerm;57653;51.434;5.984;2023-01-24T00:41:33;43.21;32.76;55.62;;
69619;Laerm;57653;51.434;5.984;2023-01-24T00:41:43;39.85;31.12;53.56;;
69619;Laerm;57653;51.434;5.984;2023-01-24T00:41:54;32.91;30.78;41.72;;
69619;Laerm;57653;51.434;5.984;2023-01-24T00:42:04;35.54;30.89;54.53;;
69619;Laerm;57653;51.434;5.984;2023-01-24T00:42:14;37.15;30.39;55.75;;
69619;Laerm;57653;51.434;5.984;2023-01-24T00:42:25;36.73;30.65;51.73;;
69619;Laerm;57653;51.434;5.984;2023-01-24T00:42:35;38.15;31.37;53.36;;
69619;Laerm;57653;51.434;5.984;2023-01-24T00:42:45;39.89;31.21;54.40;;
69619;Laerm;57653;51.434;5.984;2023-01-24T00:42:55;34.99;30.42;46.89;;
69619;Laerm;57653;51.434;5.984;2023-01-24T00:43:06;36.01;31.23;49.93;;
69619;Laerm;57653;51.434;5.984;2023-01-24T00:43:16;36.55;31.37;49.27;;
69619;Laerm;57653;51.434;5.984;2023-01-24T00:43:27;38.72;30.89;53.51;;
69619;Laerm;57653;51.434;5.984;2023-01-24T00:43:37;37.32;31.38;51.26;;
69619;Laerm;57653;51.434;5.984;2023-01-24T00:43:48;41.19;31.60;54.88;;
69619;Laerm;57653;51.434;5.984;2023-01-24T00:43:58;40.05;31.20;53.15;;
69619;Laerm;57653;51.434;5.984;2023-01-24T00:44:09;36.71;31.83;49.83;;
69619;Laerm;57653;51.434;5.984;2023-01-24T00:44:19;34.69;31.41;45.62;;
69619;Laerm;57653;51.434;5.984;2023-01-24T00:44:29;38.73;31.39;52.29;;
69619;Laerm;57653;51.434;5.984;2023-01-24T00:44:39;46.27;31.07;60.85;;
69619;Laerm;57653;51.434;5.984;2023-01-24T00:44:50;50.26;33.73;66.55;;
69619;Laerm;57653;51.434;5.984;2023-01-24T00:45:00;50.30;33.87;62.94;;
69619;Laerm;57653;51.434;5.984;2023-01-24T00:45:10;47.98;35.01;62.31;;
69619;Laerm;57653;51.434;5.984;2023-01-24T00:45:20;41.24;33.06;57.30;;
69619;Laerm;57653;51.434;5.984;2023-01-24T00:45:31;41.28;32.03;58.18;;
69619;Laerm;57653;51.434;5.984;2023-01-24T00:45:41;44.91;31.88;58.10;;
69619;Laerm;57653;51.434;5.984;2023-01-24T00:45:53;40.75;31.42;58.17;;
69619;Laerm;57653;51.434;5.984;2023-01-24T00:46:04;41.96;32.04;56.92;;
69619;Laerm;57653;51.434;5.984;2023-01-24T00:46:15;52.71;36.99;64.09;;
69619;Laerm;57653;51.434;5.984;2023-01-24T00:46:25;47.04;35.78;60.29;;
69619;Laerm;57653;51.434;5.984;2023-01-24T00:46:35;47.55;34.04;59.03;;
69619;Laerm;57653;51.434;5.984;2023-01-24T00:46:45;45.44;34.29;59.85;;
69619;Laerm;57653;51.434;5.984;2023-01-24T00:46:56;43.39;31.94;60.63;;
69619;Laerm;57653;51.434;5.984;2023-01-24T00:47:06;40.47;32.17;54.88;;
69619;Laerm;57653;51.434;5.984;2023-01-24T00:47:16;40.12;32.06;55.68;;
69619;Laerm;57653;51.434;5.984;2023-01-24T00:47:26;45.90;32.53;57.58;;
69619;Laerm;57653;51.434;5.984;2023-01-24T00:47:37;48.26;33.31;62.54;;
69619;Laerm;57653;51.434;5.984;2023-01-24T00:47:47;43.56;31.37;58.26;;
69619;Laerm;57653;51.434;5.984;2023-01-24T00:47:57;35.29;31.20;47.72;;
69619;Laerm;57653;51.434;5.984;2023-01-24T00:48:08;33.09;30.62;46.50;;
69619;Laerm;57653;51.434;5.984;2023-01-24T00:48:19;41.69;31.25;58.59;;
69619;Laerm;57653;51.434;5.984;2023-01-24T00:48:29;41.63;33.48;59.51;;
69619;Laerm;57653;51.434;5.984;2023-01-24T00:48:39;40.28;31.87;55.56;;
69619;Laerm;57653;51.434;5.984;2023-01-24T00:48:49;42.78;31.78;55.89;;
69619;Laerm;57653;51.434;5.984;2023-01-24T00:49:00;46.58;32.41;59.68;;
69619;Laerm;57653;51.434;5.984;2023-01-24T00:49:10;39.43;31.32;54.83;;
69619;Laerm;57653;51.434;5.984;2023-01-24T00:49:20;36.10;30.65;51.99;;
69619;Laerm;57653;51.434;5.984;2023-01-24T00:49:31;43.18;32.12;56.64;;
69619;Laerm;57653;51.434;5.984;2023-01-24T00:49:41;39.19;30.57;58.81;;
69619;Laerm;57653;51.434;5.984;2023-01-24T00:49:51;32.82;30.78;46.24;;
69619;Laerm;57653;51.434;5.984;2023-01-24T00:50:01;33.17;30.72;41.05;;
69619;Laerm;57653;51.434;5.984;2023-01-24T00:50:12;39.19;30.99;55.15;;
69619;Laerm;57653;51.434;5.984;2023-01-24T00:50:22;35.31;31.27;49.57;;
69619;Laerm;57653;51.434;5.984;2023-01-24T00:50:33;36.02;31.15;48.21;;
69619;Laerm;57653;51.434;5.984;2023-01-24T00:50:43;34.20;30.97;45.28;;
69619;Laerm;57653;51.434;5.984;2023-01-24T00:50:53;41.31;30.92;54.40;;
69619;Laerm;57653;51.434;5.984;2023-01-24T00:51:03;36.44;31.06;49.71;;
69619;Laerm;57653;51.434;5.984;2023-01-24T00:51:14;41.63;31.07;59.37;;
69619;Laerm;57653;51.434;5.984;2023-01-24T00:51:24;35.96;31.92;47.45;;
69619;Laerm;57653;51.434;5.984;2023-01-24T00:51:34;33.84;31.22;44.29;;
69619;Laerm;57653;51.434;5.984;2023-01-24T00:51:45;33.20;31.09;47.83;;
69619;Laerm;57653;51.434;5.984;2023-01-24T00:51:55;32.42;30.93;38.17;;
69619;Laerm;57653;51.434;5.984;2023-01-24T00:52:05;38.59;31.46;50.20;;
69619;Laerm;57653;51.434;5.984;2023-01-24T00:52:15;39.04;30.95;57.85;;
69619;Laerm;57653;51.434;5.984;2023-01-24T00:52:26;38.45;30.89;53.64;;
69619;Laerm;57653;51.434;5.984;2023-01-24T00:52:36;42.85;32.44;56.27;;
69619;Laerm;57653;51.434;5.984;2023-01-24T00:52:46;44.85;32.41;58.26;;
69619;Laerm;57653;51.434;5.984;2023-01-24T00:52:56;35.57;30.61;49.81;;
69619;Laerm;57653;51.434;5.984;2023-01-24T00:53:07;38.23;30.93;53.80;;
69619;Laerm;57653;51.434;5.984;2023-01-24T00:53:17;39.28;31.37;54.24;;
69619;Laerm;57653;51.434;5.984;2023-01-24T00:53:29;36.99;31.30;52.96;;
69619;Laerm;57653;51.434;5.984;2023-01-24T00:53:39;33.23;30.92;46.93;;
69619;Laerm;57653;51.434;5.984;2023-01-24T00:53:50;32.39;30.29;46.28;;
69619;Laerm;57653;51.434;5.984;2023-01-24T00:54:00;31.51;30.27;39.80;;
69619;Laerm;57653;51.434;5.984;2023-01-24T00:54:10;31.79;30.04;40.06;;
69619;Laerm;57653;51.434;5.984;2023-01-24T00:54:20;32.55;30.50;44.81;;
69619;Laerm;57653;51.434;5.984;2023-01-24T00:54:31;41.52;31.15;54.81;;
69619;Laerm;57653;51.434;5.984;2023-01-24T00:54:41;40.84;32.32;56.49;;
69619;Laerm;57653;51.434;5.984;2023-01-24T00:54:51;44.25;32.61;57.49;;
69619;Laerm;57653;51.434;5.984;2023-01-24T00:55:01;41.53;31.69;53.76;;
69619;Laerm;57653;51.434;5.984;2023-01-24T00:55:12;41.04;31.22;54.05;;
69619;Laerm;57653;51.434;5.984;2023-01-24T00:55:22;42.57;31.89;56.99;;
69619;Laerm;57653;51.434;5.984;2023-01-24T00:55:32;35.21;31.49;47.04;;
69619;Laerm;57653;51.434;5.984;2023-01-24T00:55:43;35.63;31.67;52.07;;
69619;Laerm;57653;51.434;5.984;2023-01-24T00:55:54;38.35;31.63;50.87;;
69619;Laerm;57653;51.434;5.984;2023-01-24T00:56:06;53.03;37.46;59.25;;
69619;Laerm;57653;51.434;5.984;2023-01-24T00:56:16;60.13;57.70;62.91;;
69619;Laerm;57653;51.434;5.984;2023-01-24T00:56:26;60.13;57.55;62.15;;
69619;Laerm;57653;51.434;5.984;2023-01-24T00:56:36;54.60;42.87;62.46;;
69619;Laerm;57653;51.434;5.984;2023-01-24T00:56:47;38.15;31.85;44.80;;
69619;Laerm;57653;51.434;5.984;2023-01-24T00:56:57;32.34;30.94;39.36;;
69619;Laerm;57653;51.434;5.984;2023-01-24T00:57:07;31.98;30.90;35.89;;
69619;Laerm;57653;51.434;5.984;2023-01-24T00:57:17;31.95;30.65;33.89;;
69619;Laerm;57653;51.434;5.984;2023-01-24T00:57:28;31.76;30.64;40.47;;
69619;Laerm;57653;51.434;5.984;2023-01-24T00:57:38;34.90;30.74;50.45;;
69619;Laerm;57653;51.434;5.984;2023-01-24T00:57:49;32.22;30.43;46.33;;
69619;Laerm;57653;51.434;5.984;2023-01-24T00:57:59;31.70;30.38;39.31;;
69619;Laerm;57653;51.434;5.984;2023-01-24T00:58:10;32.13;30.45;40.53;;
69619;Laerm;57653;51.434;5.984;2023-01-24T00:58:21;36.90;30.57;49.82;;
69619;Laerm;57653;51.434;5.984;2023-01-24T00:58:35;37.11;30.75;51.70;;